Time;durP1;ratioP1;P1;durP2;ratioP2;P2;SDS_P1;SDS_P2;PMS_P1;PMS_P2;Temp;Humidity;BMP_temperature;BMP_pressure;BME280_temperature;BME280_humidity;BME280_pressure;Samples;Min_cycle;Max_cycle;Signal;HPM_P1;HPM_P2
2024/03/17 00:00:04;;;;;;;12.70;6.72;;;;;;;12.99;97.70;100439.19;5133591;27;20586;-51
2024/03/17 00:02:32;;;;;;;8.13;4.63;;;;;;;12.95;94.13;100438.56;5133260;27;20095;-50
2024/03/17 00:04:58;;;;;;;4.32;2.70;;;;;;;13.02;91.80;100450.56;5133349;27;20047;-53
2024/03/17 00:07:27;;;;;;;3.95;1.60;;;;;;;13.01;89.15;100448.84;5133386;27;20051;-49
2024/03/17 00:09:53;;;;;;;2.47;1.50;;;;;;;13.05;88.51;100447.69;5133136;27;20043;-49
2024/03/17 00:12:21;;;;;;;3.40;1.48;;;;;;;13.12;88.00;100450.78;5133326;27;20075;-51
2024/03/17 00:14:47;;;;;;;2.42;1.38;;;;;;;13.17;87.28;100454.03;5132939;27;20130;-49
2024/03/17 00:17:16;;;;;;;3.15;1.45;;;;;;;13.21;86.85;100450.22;5132857;27;20048;-50
2024/03/17 00:19:42;;;;;;;4.22;1.48;;;;;;;13.18;86.38;100439.69;5132879;27;20050;-48
2024/03/17 00:22:13;;;;;;;3.63;1.40;;;;;;;13.13;86.37;100452.53;5132825;27;20090;-47
2024/03/17 00:24:43;;;;;;;2.75;1.40;;;;;;;13.05;86.77;100450.38;5132795;27;20051;-50
2024/03/17 00:27:12;;;;;;;2.38;1.10;;;;;;;13.05;86.70;100453.06;5133026;27;20047;-51
2024/03/17 00:29:38;;;;;;;2.08;1.20;;;;;;;13.00;86.95;100452.47;5133053;27;20383;-49
2024/03/17 00:32:06;;;;;;;2.60;1.20;;;;;;;13.10;86.12;100450.91;5132979;27;20047;-49
2024/03/17 00:34:33;;;;;;;2.38;1.10;;;;;;;13.06;86.35;100451.22;5132805;27;20449;-49
2024/03/17 00:37:00;;;;;;;3.47;1.13;;;;;;;13.02;86.53;100449.69;5132618;27;20064;-47
2024/03/17 00:39:27;;;;;;;4.32;1.30;;;;;;;12.93;87.09;100445.81;5132835;27;20051;-47
2024/03/17 00:41:55;;;;;;;2.58;1.40;;;;;;;12.93;86.85;100443.13;5133067;27;20049;-50
2024/03/17 00:44:22;;;;;;;2.88;1.20;;;;;;;13.03;86.70;100451.44;5132737;27;20051;-49
2024/03/17 00:46:49;;;;;;;3.22;1.20;;;;;;;13.11;86.30;100452.63;5132495;27;20126;-52
2024/03/17 00:49:16;;;;;;;2.65;1.40;;;;;;;13.11;86.57;100455.28;5132667;27;20079;-50
2024/03/17 00:51:43;;;;;;;3.22;1.20;;;;;;;13.06;86.59;100457.44;5132280;27;20089;-49
2024/03/17 00:54:10;;;;;;;4.65;1.48;;;;;;;12.87;88.14;100456.94;5132627;27;20077;-48
2024/03/17 00:56:37;;;;;;;2.85;1.58;;;;;;;12.83;88.67;100461.63;5132392;27;20055;-46
2024/03/17 00:59:08;;;;;;;2.63;1.20;;;;;;;12.84;88.70;100452.66;5132126;27;20134;-49
2024/03/17 01:01:38;;;;;;;2.40;1.27;;;;;;;12.94;88.03;100452.91;5132359;27;20126;-48
2024/03/17 01:04:04;;;;;;;2.88;1.50;;;;;;;12.98;87.57;100461.59;5131989;27;20385;-47
2024/03/17 01:06:32;;;;;;;3.55;1.35;;;;;;;12.86;87.90;100463.28;5131571;27;20100;-47
2024/03/17 01:08:59;;;;;;;3.13;1.40;;;;;;;12.92;88.17;100465.53;5132333;27;20051;-47
2024/03/17 01:11:27;;;;;;;3.03;1.52;;;;;;;12.81;88.49;100468.06;5131978;27;20122;-48
2024/03/17 01:13:53;;;;;;;2.85;1.60;;;;;;;12.98;87.40;100472.31;5132220;27;20063;-47
2024/03/17 01:16:22;;;;;;;2.92;1.48;;;;;;;12.82;87.78;100461.75;5132137;27;20166;-46
2024/03/17 01:18:49;;;;;;;3.35;1.58;;;;;;;12.77;88.18;100462.06;5131506;27;20069;-47
2024/03/17 01:21:17;;;;;;;2.83;1.77;;;;;;;12.70;88.67;100463.41;5131512;27;20108;-48
2024/03/17 01:23:43;;;;;;;4.07;1.85;;;;;;;12.85;87.74;100453.53;5131861;27;20047;-48
2024/03/17 01:26:10;;;;;;;3.45;1.60;;;;;;;12.85;87.20;100464.22;5131784;27;20097;-47
2024/03/17 01:28:37;;;;;;;3.35;1.80;;;;;;;12.86;87.66;100464.13;5131537;27;20531;-49
2024/03/17 01:31:06;;;;;;;3.58;1.73;;;;;;;12.88;87.30;100453.31;5131613;27;20047;-46
2024/03/17 01:33:34;;;;;;;3.17;1.80;;;;;;;12.70;87.74;100460.75;5131545;27;20070;-46
2024/03/17 01:36:01;;;;;;;3.47;1.60;;;;;;;12.81;87.58;100452.00;5131657;27;20449;-47
2024/03/17 01:38:28;;;;;;;2.63;1.70;;;;;;;12.73;88.53;100451.63;5131485;27;20051;-48
2024/03/17 01:40:55;;;;;;;3.95;2.20;;;;;;;12.74;88.12;100440.84;5131411;27;20051;-46
2024/03/17 01:43:21;;;;;;;3.38;2.00;;;;;;;12.69;88.38;100450.13;5131054;27;20150;-50
2024/03/17 01:45:48;;;;;;;4.10;2.00;;;;;;;12.51;89.70;100445.03;5131246;27;20107;-48
2024/03/17 01:48:18;;;;;;;3.63;1.80;;;;;;;12.53;89.04;100448.44;5131076;27;20043;-50
2024/03/17 01:50:50;;;;;;;4.25;2.08;;;;;;;12.58;89.41;100445.50;5131113;27;20407;-48
2024/03/17 01:53:16;;;;;;;3.75;2.13;;;;;;;12.50;89.67;100454.00;5131040;27;20046;-46
2024/03/17 01:55:47;;;;;;;3.58;2.20;;;;;;;12.55;89.82;100451.91;5130927;27;20047;-47
2024/03/17 01:58:14;;;;;;;4.93;2.40;;;;;;;12.48;90.25;100441.69;5130789;27;20058;-48
2024/03/17 02:00:41;;;;;;;3.65;2.30;;;;;;;12.58;89.51;100448.16;5130666;27;20047;-48
2024/03/17 02:03:08;;;;;;;3.92;2.33;;;;;;;12.41;90.60;100449.25;5131198;27;20100;-49
2024/03/17 02:05:37;;;;;;;4.28;2.40;;;;;;;12.22;92.00;100448.72;5131069;27;20083;-46
2024/03/17 02:08:05;;;;;;;4.03;2.28;;;;;;;12.30;92.11;100454.44;5131028;27;20082;-49
2024/03/17 02:10:32;;;;;;;3.90;2.40;;;;;;;12.25;93.19;100453.84;5130915;27;20043;-49
2024/03/17 02:13:00;;;;;;;5.22;2.60;;;;;;;12.18;93.44;100453.41;5130954;27;20051;-47
2024/03/17 02:15:27;;;;;;;4.22;2.40;;;;;;;12.10;95.21;100460.19;5130719;27;20056;-47
2024/03/17 02:17:54;;;;;;;4.80;2.70;;;;;;;12.09;95.70;100461.16;5130495;27;20055;-49
2024/03/17 02:20:24;;;;;;;5.45;2.80;;;;;;;12.24;94.61;100462.84;5130542;27;20112;-48
2024/03/17 02:22:52;;;;;;;4.75;2.60;;;;;;;12.21;95.02;100465.72;5130560;27;20122;-49
2024/03/17 02:25:19;;;;;;;4.18;2.67;;;;;;;12.13;96.14;100470.69;5130583;27;20085;-48
2024/03/17 02:27:46;;;;;;;3.92;2.67;;;;;;;12.12;96.53;100468.97;5130537;27;20116;-49
2024/03/17 02:30:13;;;;;;;5.55;2.75;;;;;;;12.04;97.21;100474.78;5130865;27;20050;-48
2024/03/17 02:32:39;;;;;;;4.78;2.72;;;;;;;11.82;100.00;100472.63;5131041;27;20043;-46
2024/03/17 02:35:08;;;;;;;4.32;2.80;;;;;;;11.86;100.00;100473.28;5130760;27;20047;-49
2024/03/17 02:37:34;;;;;;;3.88;2.60;;;;;;;11.88;100.00;100477.59;5130603;28;20043;-48
2024/03/17 02:40:05;;;;;;;4.88;2.75;;;;;;;12.01;99.87;100472.31;5130483;27;20480;-49
2024/03/17 02:42:38;;;;;;;8.20;2.53;;;;;;;11.98;99.91;100478.72;5130446;28;20047;-48
2024/03/17 02:45:06;;;;;;;5.22;2.88;;;;;;;11.93;100.00;100480.81;5130749;28;20047;-48
2024/03/17 02:47:34;;;;;;;6.82;2.80;;;;;;;11.92;100.00;100484.44;5130861;28;20452;-47
2024/03/17 02:50:02;;;;;;;4.95;3.05;;;;;;;11.76;100.00;100487.16;5130139;27;20535;-49
2024/03/17 02:52:29;;;;;;;4.28;2.70;;;;;;;11.83;100.00;100490.38;5130249;28;20050;-47
2024/03/17 02:54:57;;;;;;;5.70;2.78;;;;;;;11.82;100.00;100494.00;5130099;27;20040;-50
2024/03/17 02:57:29;;;;;;;5.00;2.85;;;;;;;11.78;100.00;100500.47;5130141;27;20092;-47
2024/03/17 02:59:56;;;;;;;4.68;3.08;;;;;;;11.72;100.00;100484.78;5130290;27;20122;-47
2024/03/17 03:02:24;;;;;;;5.13;2.72;;;;;;;11.69;100.00;100487.66;5130107;27;20043;-46
2024/03/17 03:04:51;;;;;;;5.93;3.13;;;;;;;11.77;100.00;100477.34;5129933;28;20043;-45
2024/03/17 03:07:19;;;;;;;4.97;2.80;;;;;;;11.64;100.00;100479.91;5130079;27;20064;-47
2024/03/17 03:09:47;;;;;;;4.75;2.92;;;;;;;11.74;100.00;100472.19;5130111;27;20098;-47
2024/03/17 03:12:14;;;;;;;5.18;2.72;;;;;;;11.82;100.00;100464.59;5130388;27;20455;-48
2024/03/17 03:14:43;;;;;;;4.57;2.78;;;;;;;11.76;100.00;100467.59;5129986;27;20051;-49
2024/03/17 03:17:10;;;;;;;6.25;3.05;;;;;;;11.86;100.00;100474.13;5130150;27;20059;-49
2024/03/17 03:19:37;;;;;;;4.13;2.80;;;;;;;11.79;100.00;100480.78;5129864;27;20057;-50
2024/03/17 03:22:06;;;;;;;4.20;2.70;;;;;;;11.77;100.00;100485.34;5129956;27;20053;-52
2024/03/17 03:24:33;;;;;;;5.15;2.67;;;;;;;11.59;100.00;100499.84;5130576;28;20062;-48
2024/03/17 03:27:00;;;;;;;5.40;2.55;;;;;;;11.46;100.00;100489.03;5130116;27;20047;-47
2024/03/17 03:29:28;;;;;;;4.50;2.50;;;;;;;11.52;100.00;100498.50;5131710;27;20397;-48
2024/03/17 03:31:57;;;;;;;4.75;2.88;;;;;;;11.52;100.00;100499.34;5133921;27;20047;-46
2024/03/17 03:34:26;;;;;;;4.53;2.55;;;;;;;11.37;100.00;100493.09;5133885;27;20092;-48
2024/03/17 03:36:53;;;;;;;4.43;2.65;;;;;;;11.35;100.00;100496.81;5133655;27;20164;-48
2024/03/17 03:39:20;;;;;;;5.10;2.60;;;;;;;11.39;100.00;100491.22;5133933;27;20043;-46
2024/03/17 03:41:50;;;;;;;4.13;2.38;;;;;;;11.32;100.00;100495.22;5133758;27;20062;-46
2024/03/17 03:44:18;;;;;;;4.25;2.55;;;;;;;11.38;100.00;100484.13;5133740;27;20039;-48
2024/03/17 03:46:46;;;;;;;5.38;2.72;;;;;;;11.32;100.00;100505.88;5133487;27;20047;-48
2024/03/17 03:49:15;;;;;;;6.90;2.70;;;;;;;11.15;100.00;100511.34;5133614;27;20043;-47
2024/03/17 03:51:42;;;;;;;6.90;2.70;;;;;;;11.02;100.00;100508.56;5133551;27;20084;-46
2024/03/17 03:54:09;;;;;;;4.60;2.70;;;;;;;11.10;100.00;100516.13;5133439;27;20130;-48
2024/03/17 03:56:36;;;;;;;3.88;2.50;;;;;;;11.05;100.00;100518.19;5133645;27;20162;-48
2024/03/17 03:59:05;;;;;;;3.88;2.35;;;;;;;11.17;100.00;100514.78;5133326;27;20043;-47
2024/03/17 04:01:32;;;;;;;4.82;2.45;;;;;;;11.05;100.00;100534.19;5133345;27;20111;-48
2024/03/17 04:04:00;;;;;;;4.28;2.55;;;;;;;11.20;100.00;100537.81;5133156;27;20062;-46
2024/03/17 04:06:28;;;;;;;4.10;2.35;;;;;;;11.08;100.00;100544.69;5133111;27;20548;-48
2024/03/17 04:08:56;;;;;;;6.10;2.88;;;;;;;11.00;100.00;100541.59;5133174;27;20043;-47
2024/03/17 04:11:23;;;;;;;4.28;2.78;;;;;;;11.01;100.00;100536.19;5133193;27;20457;-49
2024/03/17 04:13:51;;;;;;;3.70;2.47;;;;;;;11.08;100.00;100529.53;5133067;27;20077;-49
2024/03/17 04:16:18;;;;;;;4.60;2.70;;;;;;;11.02;100.00;100547.72;5133108;27;20050;-48
2024/03/17 04:18:45;;;;;;;4.50;2.70;;;;;;;10.82;100.00;100547.06;5133227;27;20393;-47
2024/03/17 04:21:13;;;;;;;3.88;2.50;;;;;;;10.95;100.00;100549.03;5133025;27;20050;-49
2024/03/17 04:23:41;;;;;;;4.18;2.50;;;;;;;11.12;99.22;100551.59;5132860;27;20152;-47
2024/03/17 04:26:09;;;;;;;4.88;2.88;;;;;;;11.10;95.81;100553.50;5132797;27;20051;-49
2024/03/17 04:28:37;;;;;;;5.30;2.90;;;;;;;11.04;95.34;100553.84;5132765;27;20057;-52
2024/03/17 04:31:04;;;;;;;4.30;2.75;;;;;;;10.95;93.02;100559.69;5132656;27;20083;-51
2024/03/17 04:33:32;;;;;;;7.15;2.88;;;;;;;10.91;90.68;100566.16;5132520;27;20362;-49
2024/03/17 04:35:59;;;;;;;5.43;2.80;;;;;;;11.04;89.84;100565.38;5133157;27;20051;-46
2024/03/17 04:38:27;;;;;;;5.88;2.78;;;;;;;10.79;87.71;100576.56;5132703;27;20043;-48
2024/03/17 04:41:04;;;;;;;4.00;2.53;;;;;;;10.79;85.57;100565.88;5132052;27;20127;-48
2024/03/17 04:43:32;;;;;;;5.47;2.78;;;;;;;10.91;83.27;100559.03;5132553;27;20043;-48
2024/03/17 04:46:05;;;;;;;5.00;2.80;;;;;;;11.00;82.27;100557.59;5132440;27;20043;-49
2024/03/17 04:48:33;;;;;;;4.05;2.55;;;;;;;11.04;80.68;100561.84;5132285;27;20058;-46
2024/03/17 04:51:01;;;;;;;3.47;2.28;;;;;;;11.00;79.11;100557.59;5132305;27;20130;-49
2024/03/17 04:53:29;;;;;;;4.18;2.38;;;;;;;10.98;77.77;100567.53;5132216;27;20047;-48
2024/03/17 04:56:05;;;;;;;3.92;2.20;;;;;;;10.96;76.63;100574.75;5132330;27;20078;-50
2024/03/17 04:58:32;;;;;;;3.72;2.40;;;;;;;10.76;77.94;100568.72;5132074;27;20144;-49
2024/03/17 05:01:05;;;;;;;5.10;2.70;;;;;;;10.71;79.62;100578.81;5132210;27;20051;-49
2024/03/17 05:03:32;;;;;;;4.75;2.88;;;;;;;10.55;81.57;100570.78;5132095;27;20043;-50
2024/03/17 05:06:03;;;;;;;5.38;2.70;;;;;;;10.51;83.10;100573.69;5131967;27;20051;-46
2024/03/17 05:08:31;;;;;;;4.32;2.58;;;;;;;10.37;84.92;100573.59;5131835;27;20047;-50
2024/03/17 05:11:00;;;;;;;4.65;2.97;;;;;;;10.56;84.32;100579.66;5131955;27;20039;-50
2024/03/17 05:13:29;;;;;;;6.15;2.95;;;;;;;10.73;83.86;100571.59;5131935;27;20138;-50
2024/03/17 05:15:56;;;;;;;4.70;2.92;;;;;;;10.60;84.77;100576.72;5131957;27;20088;-47
2024/03/17 05:18:25;;;;;;;6.18;3.35;;;;;;;10.55;84.52;100596.59;5131718;27;20044;-49
2024/03/17 05:21:00;;;;;;;5.28;3.20;;;;;;;10.25;83.89;100594.66;5131816;27;20058;-50
2024/03/17 05:23:29;;;;;;;5.70;3.00;;;;;;;10.36;83.89;100598.53;5131538;27;20043;-46
2024/03/17 05:25:57;;;;;;;7.28;3.17;;;;;;;10.12;83.94;100598.84;5131820;27;20468;-49
2024/03/17 05:28:27;;;;;;;6.18;3.22;;;;;;;10.19;83.68;100604.72;5131767;27;20051;-46
2024/03/17 05:30:56;;;;;;;4.22;2.80;;;;;;;10.35;82.14;100610.16;5131704;27;20074;-49
2024/03/17 05:33:25;;;;;;;5.07;2.97;;;;;;;10.02;82.51;100618.94;5131454;27;20049;-49
2024/03/17 05:35:53;;;;;;;4.68;2.90;;;;;;;10.25;82.85;100621.31;5131488;27;20730;-46
2024/03/17 05:38:21;;;;;;;5.78;2.65;;;;;;;10.10;80.75;100629.22;5131446;27;20087;-45
2024/03/17 05:40:59;;;;;;;4.88;2.65;;;;;;;9.89;79.51;100625.84;5131495;27;20071;-46
2024/03/17 05:43:28;;;;;;;5.32;2.80;;;;;;;9.99;78.55;100616.44;5131423;27;20039;-47
2024/03/17 05:45:59;;;;;;;6.65;3.20;;;;;;;10.04;76.54;100633.94;5131316;27;20039;-46
2024/03/17 05:48:26;;;;;;;5.90;2.70;;;;;;;10.31;75.07;100631.63;5131370;27;20073;-47
2024/03/17 05:50:54;;;;;;;7.18;2.85;;;;;;;10.20;74.06;100631.31;5131499;27;20039;-48
2024/03/17 05:53:23;;;;;;;6.32;2.72;;;;;;;10.26;73.16;100630.16;5130598;27;20044;-47
2024/03/17 05:55:51;;;;;;;9.68;3.22;;;;;;;10.26;72.67;100623.03;5131236;27;20043;-47
2024/03/17 05:58:19;;;;;;;5.95;2.63;;;;;;;9.98;71.89;100641.38;5131107;27;20083;-48
2024/03/17 06:00:46;;;;;;;5.63;2.78;;;;;;;9.82;73.10;100635.94;5130988;27;20051;-48
2024/03/17 06:03:15;;;;;;;5.43;2.55;;;;;;;9.89;72.40;100636.50;5130980;27;20042;-47
2024/03/17 06:05:42;;;;;;;7.97;3.05;;;;;;;9.97;72.34;100627.19;5129004;27;20039;-45
2024/03/17 06:08:11;;;;;;;21.63;13.73;;;;;;;10.04;72.22;100627.75;5130502;27;20050;-45
2024/03/17 06:10:43;;;;;;;7.85;4.95;;;;;;;9.98;70.96;100636.03;5130134;27;20054;-46
2024/03/17 06:13:12;;;;;;;6.07;3.43;;;;;;;9.89;70.66;100615.19;5129397;27;20095;-47
2024/03/17 06:15:41;;;;;;;5.93;2.95;;;;;;;9.84;70.87;100626.06;5129661;27;20271;-47
2024/03/17 06:18:12;;;;;;;5.50;2.75;;;;;;;9.85;70.83;100630.50;5130043;27;20499;-47
2024/03/17 06:20:43;;;;;;;5.13;2.80;;;;;;;9.84;70.46;100627.88;5129963;27;20055;-45
2024/03/17 06:23:11;;;;;;;4.53;2.47;;;;;;;9.92;70.85;100617.69;5128703;27;20519;-45
2024/03/17 06:25:42;;;;;;;5.45;2.40;;;;;;;10.05;69.51;100618.81;5129550;27;20388;-47
2024/03/17 06:28:13;;;;;;;6.03;2.55;;;;;;;10.28;69.81;100622.94;5129978;27;20047;-47
2024/03/17 06:30:40;;;;;;;5.95;2.80;;;;;;;10.23;68.35;100636.53;5130016;27;20047;-46
2024/03/17 06:33:10;;;;;;;5.80;2.33;;;;;;;10.40;68.39;100632.94;5128238;27;20047;-48
2024/03/17 06:35:37;;;;;;;7.68;3.08;;;;;;;10.11;68.85;100631.78;5129224;27;20043;-45
2024/03/17 06:38:09;;;;;;;5.65;2.88;;;;;;;10.24;68.85;100622.25;5129833;27;20125;-47
2024/03/17 06:40:37;;;;;;;4.50;2.65;;;;;;;10.04;69.19;100620.59;5129528;27;20051;-47
2024/03/17 06:43:05;;;;;;;7.57;2.88;;;;;;;10.14;69.29;100630.78;5127938;27;20142;-47
2024/03/17 06:45:32;;;;;;;6.28;2.60;;;;;;;9.99;69.33;100627.09;5129393;28;20062;-46
2024/03/17 06:48:00;;;;;;;6.10;2.83;;;;;;;10.08;69.34;100626.63;5129889;28;20050;-47
2024/03/17 06:50:27;;;;;;;7.25;2.90;;;;;;;10.43;68.14;100626.63;5129958;27;20039;-46
2024/03/17 06:52:56;;;;;;;4.72;2.53;;;;;;;10.40;67.79;100629.41;5128494;28;20051;-47
2024/03/17 06:55:25;;;;;;;6.40;2.63;;;;;;;10.39;67.20;100617.03;5130101;28;20106;-47
2024/03/17 06:57:52;;;;;;;5.47;2.47;;;;;;;10.03;68.67;100618.00;5130555;28;20082;-48
2024/03/17 07:00:24;;;;;;;4.53;2.65;;;;;;;10.40;67.64;100630.28;5130095;27;20058;-50
2024/03/17 07:02:52;;;;;;;5.05;2.40;;;;;;;10.64;66.70;100629.91;5128046;28;20043;-49
2024/03/17 07:05:19;;;;;;;5.32;2.80;;;;;;;10.77;66.53;100625.63;5132632;27;20400;-46
2024/03/17 07:07:47;;;;;;;6.05;2.90;;;;;;;10.51;66.04;100627.91;5133795;27;20047;-45
2024/03/17 07:10:15;;;;;;;6.18;2.70;;;;;;;10.40;67.08;100637.41;5133725;27;20129;-48
2024/03/17 07:12:44;;;;;;;5.70;2.40;;;;;;;10.37;66.81;100634.94;5131835;27;20075;-46
2024/03/17 07:15:12;;;;;;;5.55;2.50;;;;;;;10.59;66.29;100628.34;5133384;27;20058;-48
2024/03/17 07:17:39;;;;;;;4.55;2.45;;;;;;;10.60;65.89;100639.88;5133724;27;20530;-46
2024/03/17 07:20:08;;;;;;;4.88;2.33;;;;;;;10.25;66.54;100647.09;5133852;27;20526;-47
2024/03/17 07:22:36;;;;;;;6.28;2.55;;;;;;;10.51;66.20;100629.69;5131689;27;20046;-46
2024/03/17 07:25:03;;;;;;;5.95;2.75;;;;;;;10.48;65.85;100624.53;5133342;27;20043;-46
2024/03/17 07:27:31;;;;;;;5.15;2.53;;;;;;;10.72;65.20;100641.03;5133584;27;20055;-46
2024/03/17 07:30:00;;;;;;;6.00;2.47;;;;;;;10.88;64.92;100629.41;5133100;27;20044;-46
2024/03/17 07:32:27;;;;;;;4.65;2.30;;;;;;;10.59;65.15;100622.16;5132252;27;20053;-47
2024/03/17 07:34:55;;;;;;;4.93;2.35;;;;;;;10.91;64.86;100612.41;5133044;27;20047;-45
2024/03/17 07:37:22;;;;;;;6.65;2.60;;;;;;;11.13;64.01;100620.91;5133128;27;20046;-48
2024/03/17 07:39:50;;;;;;;6.45;2.38;;;;;;;10.75;64.59;100623.03;5133202;27;20102;-45
2024/03/17 07:42:17;;;;;;;6.40;2.20;;;;;;;11.14;64.02;100624.44;5131737;27;20079;-45
2024/03/17 07:44:45;;;;;;;5.63;2.15;;;;;;;11.37;63.33;100621.31;5132656;27;20126;-47
2024/03/17 07:47:14;;;;;;;7.03;2.38;;;;;;;11.65;62.52;100625.06;5132916;27;20090;-49
2024/03/17 07:49:42;;;;;;;5.90;2.42;;;;;;;11.08;63.30;100635.44;5133035;27;20424;-50
2024/03/17 07:52:09;;;;;;;6.88;2.40;;;;;;;11.35;63.19;100619.69;5131138;27;20054;-47
2024/03/17 07:54:37;;;;;;;5.78;2.25;;;;;;;11.45;62.30;100628.88;5132993;27;20039;-45
2024/03/17 07:57:04;;;;;;;7.45;2.60;;;;;;;11.40;61.97;100631.84;5132564;27;20427;-44
2024/03/17 07:59:32;;;;;;;4.22;2.08;;;;;;;11.22;62.49;100632.88;5132713;27;20047;-45
2024/03/17 08:01:59;;;;;;;6.53;2.20;;;;;;;11.50;62.07;100618.81;5131778;27;20047;-46
2024/03/17 08:04:27;;;;;;;6.60;2.60;;;;;;;11.44;61.35;100633.38;5132019;27;20097;-45
2024/03/17 08:06:58;;;;;;;4.65;2.50;;;;;;;11.66;61.96;100610.72;5132765;27;20084;-46
2024/03/17 08:09:25;;;;;;;7.40;2.42;;;;;;;11.92;61.59;100615.44;5132726;27;20391;-45
2024/03/17 08:11:53;;;;;;;5.22;2.35;;;;;;;11.70;60.66;100626.50;5132557;27;20107;-46
2024/03/17 08:14:20;;;;;;;5.70;2.30;;;;;;;12.01;59.94;100625.56;5131054;27;20492;-47
2024/03/17 08:16:47;;;;;;;9.02;3.25;;;;;;;12.04;59.45;100638.75;5131133;27;20095;-46
2024/03/17 08:19:15;;;;;;;10.98;4.95;;;;;;;12.10;59.03;100634.84;5132587;27;20047;-46
2024/03/17 08:21:45;;;;;;;4.65;2.55;;;;;;;12.21;59.17;100635.06;5132438;27;20410;-46
2024/03/17 08:24:12;;;;;;;6.65;2.13;;;;;;;11.90;57.94;100638.72;5131218;27;20058;-47
2024/03/17 08:26:40;;;;;;;6.30;2.40;;;;;;;11.95;58.50;100643.78;5132499;27;20107;-47
2024/03/17 08:29:08;;;;;;;5.15;2.20;;;;;;;12.01;57.76;100632.75;5132336;27;20074;-47
2024/03/17 08:31:36;;;;;;;6.55;2.15;;;;;;;12.13;57.76;100641.81;5131965;27;20578;-47
2024/03/17 08:34:03;;;;;;;5.28;2.10;;;;;;;12.08;57.66;100641.25;5130097;27;20046;-47
2024/03/17 08:36:31;;;;;;;7.53;1.92;;;;;;;12.04;57.15;100653.94;5131730;27;20444;-45
2024/03/17 08:39:02;;;;;;;6.13;2.05;;;;;;;12.22;57.01;100635.91;5132533;27;20047;-46
2024/03/17 08:41:31;;;;;;;6.55;2.20;;;;;;;12.63;55.77;100649.41;5132346;27;20081;-46
2024/03/17 08:43:58;;;;;;;5.32;1.92;;;;;;;12.56;54.56;100648.97;5130438;27;20039;-46
2024/03/17 08:46:25;;;;;;;7.82;2.20;;;;;;;12.43;53.22;100653.31;5131926;27;20043;-45
2024/03/17 08:48:53;;;;;;;4.82;2.08;;;;;;;12.23;52.96;100664.38;5132520;27;20403;-46
2024/03/17 08:51:20;;;;;;;7.68;3.35;;;;;;;12.47;53.38;100667.41;5132485;27;20043;-46
2024/03/17 08:53:47;;;;;;;6.25;2.15;;;;;;;12.30;53.23;100657.72;5131614;27;20147;-45
2024/03/17 08:56:16;;;;;;;6.20;2.15;;;;;;;12.17;53.81;100654.06;5132813;27;20074;-48
2024/03/17 08:58:43;;;;;;;6.88;2.33;;;;;;;12.18;54.11;100655.78;5133654;27;20044;-46
2024/03/17 09:01:15;;;;;;;5.88;2.22;;;;;;;12.33;53.88;100662.88;5132527;27;20061;-45
2024/03/17 09:03:43;;;;;;;6.40;2.20;;;;;;;12.58;53.77;100655.06;5130538;27;20051;-47
2024/03/17 09:06:16;;;;;;;6.68;2.10;;;;;;;12.63;53.38;100672.63;5131952;27;20047;-47
2024/03/17 09:08:43;;;;;;;5.97;2.05;;;;;;;12.61;53.66;100670.06;5132500;27;20086;-47
2024/03/17 09:11:13;;;;;;;6.03;2.10;;;;;;;12.97;53.20;100666.91;5132621;27;20099;-47
2024/03/17 09:13:42;;;;;;;6.10;2.40;;;;;;;12.73;52.62;100685.34;5132253;27;20142;-45
2024/03/17 09:16:13;;;;;;;5.43;2.13;;;;;;;12.44;52.14;100683.63;5132346;27;20075;-45
2024/03/17 09:18:40;;;;;;;5.30;2.33;;;;;;;12.59;52.06;100686.22;5132254;27;20372;-46
2024/03/17 09:21:10;;;;;;;5.93;2.42;;;;;;;12.53;52.47;100683.91;5131587;27;20590;-47
2024/03/17 09:23:38;;;;;;;8.02;3.00;;;;;;;12.90;52.99;100697.69;5131979;27;20054;-47
2024/03/17 09:26:08;;;;;;;5.50;2.35;;;;;;;12.82;52.38;100691.94;5132106;27;20043;-45
2024/03/17 09:28:36;;;;;;;8.35;2.42;;;;;;;12.97;52.26;100701.72;5132263;27;20070;-47
2024/03/17 09:31:06;;;;;;;8.10;3.67;;;;;;;12.65;52.01;100700.19;5132064;27;20051;-45
2024/03/17 09:33:35;;;;;;;15.02;7.00;;;;;;;12.92;51.90;100700.28;5132784;27;20043;-46
2024/03/17 09:36:05;;;;;;;6.90;2.40;;;;;;;12.58;51.86;100705.06;5132331;27;20134;-48
2024/03/17 09:38:34;;;;;;;4.75;2.17;;;;;;;12.65;51.73;100698.38;5132007;27;20131;-45
2024/03/17 09:41:01;;;;;;;6.70;2.20;;;;;;;12.66;51.38;100709.94;5132428;27;20082;-47
2024/03/17 09:43:30;;;;;;;7.00;2.30;;;;;;;12.68;51.39;100691.97;5132366;27;20047;-47
2024/03/17 09:45:58;;;;;;;5.35;2.17;;;;;;;12.78;50.56;100687.75;5132000;27;20039;-46
2024/03/17 09:48:28;;;;;;;5.07;2.00;;;;;;;12.89;49.66;100685.28;5131696;27;20051;-46
2024/03/17 09:50:56;;;;;;;5.45;2.00;;;;;;;12.82;49.59;100679.44;5131817;27;20047;-46
2024/03/17 09:53:25;;;;;;;6.38;1.73;;;;;;;12.57;49.09;100698.84;5131433;27;20047;-46
2024/03/17 09:55:54;;;;;;;6.35;1.77;;;;;;;12.49;49.50;100686.88;5131488;27;20484;-47
2024/03/17 09:58:21;;;;;;;3.63;2.00;;;;;;;12.53;48.48;100683.06;5131735;27;20047;-47
2024/03/17 10:00:49;;;;;;;4.68;1.90;;;;;;;12.62;48.15;100671.78;5131272;27;20552;-45
2024/03/17 10:03:45;;;;;;;7.28;2.13;;;;;;;12.69;47.80;100688.34;5131465;27;20039;-44
2024/03/17 10:06:13;;;;;;;4.45;2.05;;;;;;;12.83;49.03;100674.94;5131341;27;20051;-45
2024/03/17 10:08:41;;;;;;;4.35;1.95;;;;;;;12.57;47.48;100674.75;5131285;27;20043;-44
2024/03/17 10:11:09;;;;;;;4.68;2.00;;;;;;;12.63;46.63;100691.38;5131396;27;20079;-44
2024/03/17 10:13:36;;;;;;;4.75;2.00;;;;;;;12.69;47.09;100670.47;5131099;27;20395;-47
2024/03/17 10:16:04;;;;;;;7.57;2.08;;;;;;;13.11;46.78;100664.19;5131170;27;20043;-50
2024/03/17 10:18:32;;;;;;;6.20;2.05;;;;;;;12.99;47.46;100670.34;5138913;27;20045;-44
2024/03/17 10:21:01;;;;;;;5.63;2.13;;;;;;;13.23;47.67;100667.09;5150787;27;20054;-46
2024/03/17 10:23:29;;;;;;;6.60;2.45;;;;;;;13.33;47.07;100669.09;5151983;27;20050;-46
2024/03/17 10:25:56;;;;;;;5.85;1.85;;;;;;;13.45;47.08;100667.41;5141505;27;20043;-47
2024/03/17 10:28:24;;;;;;;4.80;2.10;;;;;;;13.40;46.68;100664.16;5131246;27;20047;-48
2024/03/17 10:31:01;;;;;;;5.47;1.85;;;;;;;13.22;46.34;100662.66;5130954;27;20046;-47
2024/03/17 10:33:29;;;;;;;9.15;2.33;;;;;;;13.13;46.89;100675.69;5131013;27;20043;-47
2024/03/17 10:36:02;;;;;;;5.03;2.25;;;;;;;13.26;46.88;100646.31;5130965;27;20488;-47
2024/03/17 10:38:30;;;;;;;4.57;2.00;;;;;;;13.39;46.75;100662.44;5130896;27;20048;-47
2024/03/17 10:40:58;;;;;;;6.32;2.00;;;;;;;13.22;46.10;100660.00;5131084;28;20043;-53
2024/03/17 10:43:26;;;;;;;5.50;1.92;;;;;;;13.20;45.66;100644.03;5142156;27;20050;-49
2024/03/17 10:45:55;;;;;;;5.85;1.88;;;;;;;13.28;45.46;100633.69;5153184;27;20081;-49
2024/03/17 10:48:27;;;;;;;5.38;2.13;;;;;;;13.17;45.01;100639.69;5152436;27;20129;-46
2024/03/17 10:51:00;;;;;;;5.90;2.40;;;;;;;13.37;45.27;100649.16;5148765;27;20045;-47
2024/03/17 10:53:30;;;;;;;5.50;2.10;;;;;;;13.59;45.23;100658.44;5151433;27;20518;-46
2024/03/17 10:56:06;;;;;;;5.40;1.77;;;;;;;13.52;44.93;100654.47;5151334;27;20049;-49
2024/03/17 10:58:37;;;;;;;6.18;2.30;;;;;;;13.67;44.68;100643.59;5151681;27;20054;-50
2024/03/17 11:01:07;;;;;;;5.20;2.08;;;;;;;13.44;44.87;100655.84;5151699;27;20085;-47
2024/03/17 11:03:35;;;;;;;5.85;2.00;;;;;;;13.47;44.36;100654.78;5151322;27;20054;-48
2024/03/17 11:06:05;;;;;;;3.85;1.90;;;;;;;13.53;43.16;100645.47;5150658;27;20042;-49
2024/03/17 11:08:35;;;;;;;6.93;1.80;;;;;;;13.61;43.55;100665.44;5150925;27;20095;-48
2024/03/17 11:11:03;;;;;;;3.78;1.80;;;;;;;13.50;43.15;100653.69;5133857;27;20051;-48
2024/03/17 11:13:33;;;;;;;5.50;2.22;;;;;;;13.31;43.39;100654.03;5150968;27;20139;-46
2024/03/17 11:16:04;;;;;;;7.07;2.17;;;;;;;13.36;44.05;100641.22;5151155;27;20415;-47
2024/03/17 11:18:39;;;;;;;4.45;1.90;;;;;;;13.13;43.50;100653.41;5137839;27;20042;-45
2024/03/17 11:21:25;;;;;;;4.55;2.03;;;;;;;13.31;43.33;100654.03;5108630;28;20070;-48
2024/03/17 11:24:03;;;;;;;3.67;1.77;;;;;;;13.57;43.13;100646.97;5117311;28;20118;-47
2024/03/17 11:26:33;;;;;;;5.93;1.77;;;;;;;13.77;43.36;100653.69;5129021;28;20051;-48
2024/03/17 11:29:01;;;;;;;6.65;2.13;;;;;;;13.59;43.40;100645.06;5129123;28;20093;-51